Time;durP1;ratioP1;P1;durP2;ratioP2;P2;SDS_P1;SDS_P2;PMS_P1;PMS_P2;Temp;Humidity;BMP_temperature;BMP_pressure;BME280_temperature;BME280_humidity;BME280_pressure;Samples;Min_cycle;Max_cycle;Signal;HPM_P1;HPM_P2
2022/04/30 00:01:56;;;;;;;154.07;28.90;;;;;;;;;;4952860;28;20334;-70
2022/04/30 00:04:22;;;;;;;70.73;13.73;;;;;;;;;;4960958;28;20692;-69
2022/04/30 00:06:48;;;;;;;120.65;22.63;;;;;;;;;;4955466;28;20305;-70
2022/04/30 00:09:13;;;;;;;130.93;24.13;;;;;;;;;;4937617;28;20198;-70
2022/04/30 00:11:39;;;;;;;56.23;11.03;;;;;;;;;;4961266;28;20222;-70
2022/04/30 00:14:05;;;;;;;154.03;29.07;;;;;;;;;;4952526;28;20728;-70
2022/04/30 00:16:31;;;;;;;103.43;19.30;;;;;;;;;;4947494;28;20290;-70
2022/04/30 00:18:59;;;;;;;121.50;22.60;;;;;;;;;;4956086;28;20260;-70
2022/04/30 00:21:24;;;;;;;120.40;21.87;;;;;;;;;;4952964;28;20224;-69
2022/04/30 00:23:50;;;;;;;50.30;9.63;;;;;;;;;;4955307;28;20194;-70
2022/04/30 00:26:16;;;;;;;136.00;24.70;;;;;;;;;;4943058;28;20276;-70
2022/04/30 00:28:42;;;;;;;86.40;16.23;;;;;;;;;;4953897;28;20238;-70
2022/04/30 00:31:08;;;;;;;183.60;33.80;;;;;;;;;;4947941;28;20292;-70
2022/04/30 00:33:34;;;;;;;106.83;19.73;;;;;;;;;;4951425;28;20788;-70
2022/04/30 00:36:00;;;;;;;120.30;23.00;;;;;;;;;;4953807;28;20214;-70
2022/04/30 00:38:26;;;;;;;77.20;14.47;;;;;;;;;;4963101;28;20619;-70
2022/04/30 00:40:52;;;;;;;111.67;20.37;;;;;;;;;;4939275;28;20221;-70
2022/04/30 00:43:18;;;;;;;93.90;16.93;;;;;;;;;;4957869;28;20325;-70
2022/04/30 00:45:48;;;;;;;88.03;16.07;;;;;;;;;;4952624;28;20241;-71
2022/04/30 00:48:14;;;;;;;143.07;25.53;;;;;;;;;;4947471;28;20205;-69
2022/04/30 00:50:41;;;;;;;120.90;21.83;;;;;;;;;;4951668;28;20253;-70
2022/04/30 00:53:08;;;;;;;180.37;33.53;;;;;;;;;;4947304;28;20218;-70
2022/04/30 00:55:35;;;;;;;99.90;18.23;;;;;;;;;;4957134;28;20222;-70
2022/04/30 00:58:04;;;;;;;152.10;27.88;;;;;;;;;;4956241;28;20214;-70
2022/04/30 01:00:30;;;;;;;59.08;11.68;;;;;;;;;;4958917;28;20214;-70
2022/04/30 01:02:56;;;;;;;108.72;20.42;;;;;;;;;;4934758;28;20695;-70
2022/04/30 01:05:22;;;;;;;87.83;16.40;;;;;;;;;;4961222;28;20300;-70
2022/04/30 01:07:48;;;;;;;40.93;8.00;;;;;;;;;;4954243;28;20219;-70
2022/04/30 01:10:14;;;;;;;89.77;16.70;;;;;;;;;;4957242;28;20226;-70
2022/04/30 01:12:40;;;;;;;105.20;19.05;;;;;;;;;;4957853;28;20222;-70
2022/04/30 01:15:07;;;;;;;142.87;26.67;;;;;;;;;;4952468;28;20194;-70
2022/04/30 01:17:35;;;;;;;102.77;18.33;;;;;;;;;;4957697;28;20217;-69
2022/04/30 01:20:01;;;;;;;151.70;26.83;;;;;;;;;;4957055;28;20206;-70
2022/04/30 01:22:29;;;;;;;88.27;16.07;;;;;;;;;;4949545;28;20293;-70
2022/04/30 01:24:56;;;;;;;105.20;19.33;;;;;;;;;;4938968;28;20214;-70
2022/04/30 01:27:23;;;;;;;121.50;21.70;;;;;;;;;;4952486;28;20217;-70
2022/04/30 01:29:49;;;;;;;67.87;12.73;;;;;;;;;;4963628;28;20186;-70
2022/04/30 01:37:45;;;;;;;53.10;10.13;;;;;;;;;;4958139;28;20603;-70
2022/04/30 01:40:11;;;;;;;147.57;26.87;;;;;;;;;;4953303;28;20214;-70
2022/04/30 01:42:44;;;;;;;93.37;17.43;;;;;;;;;;4950531;28;20226;-69
2022/04/30 01:45:10;;;;;;;140.30;25.67;;;;;;;;;;4958163;28;20212;-70
2022/04/30 01:47:37;;;;;;;66.33;12.40;;;;;;;;;;4940969;28;20305;-70
2022/04/30 01:50:03;;;;;;;137.47;24.43;;;;;;;;;;4952136;28;20646;-70
2022/04/30 01:52:30;;;;;;;111.57;20.03;;;;;;;;;;4951825;28;20240;-70
2022/04/30 01:54:56;;;;;;;98.07;18.03;;;;;;;;;;4943430;28;20215;-70
2022/04/30 01:57:26;;;;;;;62.90;12.13;;;;;;;;;;4941260;28;20191;-70
2022/04/30 01:59:59;;;;;;;56.60;10.77;;;;;;;;;;4960149;28;20652;-70
2022/04/30 02:02:27;;;;;;;104.67;19.40;;;;;;;;;;4950333;28;20231;-70
2022/04/30 02:05:04;;;;;;;87.10;16.63;;;;;;;;;;4950960;28;20211;-70
2022/04/30 02:07:32;;;;;;;38.07;7.87;;;;;;;;;;4953483;28;20846;-70
2022/04/30 02:09:59;;;;;;;111.60;21.73;;;;;;;;;;4955376;28;20206;-70
2022/04/30 02:12:31;;;;;;;106.03;20.57;;;;;;;;;;4952757;28;20217;-70
2022/04/30 02:14:58;;;;;;;131.53;24.50;;;;;;;;;;4952972;28;20182;-70
2022/04/30 02:17:26;;;;;;;127.78;23.35;;;;;;;;;;4959039;28;20260;-70
2022/04/30 02:22:39;;;;;;;86.73;16.47;;;;;;;;;;4951604;28;20266;-70
2022/04/30 02:25:09;;;;;;;146.70;28.63;;;;;;;;;;4948858;28;20870;-70
2022/04/30 02:27:45;;;;;;;92.13;17.80;;;;;;;;;;4953549;28;20218;-70
2022/04/30 02:30:19;;;;;;;180.70;33.60;;;;;;;;;;4950858;28;20240;-70
2022/04/30 02:32:46;;;;;;;110.90;20.20;;;;;;;;;;4953911;28;20233;-70
2022/04/30 02:35:14;;;;;;;138.47;26.00;;;;;;;;;;4955890;28;20218;-70
2022/04/30 02:37:40;;;;;;;61.23;11.77;;;;;;;;;;4952415;28;20576;-70
2022/04/30 02:40:06;;;;;;;141.70;26.07;;;;;;;;;;4936149;28;20217;-70
2022/04/30 02:42:32;;;;;;;136.20;24.77;;;;;;;;;;4952642;28;20214;-70
2022/04/30 02:44:59;;;;;;;112.40;20.23;;;;;;;;;;4955741;28;20194;-70
2022/04/30 02:47:25;;;;;;;123.63;21.97;;;;;;;;;;4951326;28;20225;-70
2022/04/30 02:49:53;;;;;;;55.83;10.43;;;;;;;;;;4937452;28;20214;-70
2022/04/30 02:52:20;;;;;;;125.10;21.77;;;;;;;;;;4951593;28;20708;-70
2022/04/30 02:54:46;;;;;;;65.90;12.27;;;;;;;;;;4941154;28;21232;-70
2022/04/30 02:57:12;;;;;;;126.50;22.30;;;;;;;;;;4951998;28;20304;-70
2022/04/30 02:59:53;;;;;;;46.53;9.03;;;;;;;;;;4940290;28;20593;-70
2022/04/30 03:02:20;;;;;;;115.77;20.17;;;;;;;;;;4953217;28;20719;-70
2022/04/30 03:04:46;;;;;;;75.40;13.57;;;;;;;;;;4955135;28;20228;-70
2022/04/30 03:07:12;;;;;;;117.30;20.63;;;;;;;;;;4953832;28;20217;-71
2022/04/30 03:09:41;;;;;;;89.83;16.20;;;;;;;;;;4936747;28;20200;-70
2022/04/30 03:12:08;;;;;;;110.60;19.40;;;;;;;;;;4960638;28;20222;-70
2022/04/30 03:14:35;;;;;;;238.80;41.23;;;;;;;;;;4934409;28;21629;-70
2022/04/30 03:22:31;;;;;;;93.97;17.00;;;;;;;;;;4947585;28;20237;-70
2022/04/30 03:24:56;;;;;;;86.23;16.73;;;;;;;;;;4961226;28;20301;-70
2022/04/30 03:27:22;;;;;;;93.47;17.17;;;;;;;;;;4963681;28;20217;-69
2022/04/30 03:29:48;;;;;;;88.47;16.13;;;;;;;;;;4958831;28;20179;-70
2022/04/30 03:32:14;;;;;;;121.80;21.70;;;;;;;;;;4949855;28;20234;-70
2022/04/30 03:34:40;;;;;;;86.73;15.83;;;;;;;;;;4951127;28;20214;-71
2022/04/30 03:37:06;;;;;;;162.07;28.17;;;;;;;;;;4952929;28;20296;-70
2022/04/30 03:39:32;;;;;;;106.37;19.50;;;;;;;;;;4953225;28;20186;-70
2022/04/30 03:41:58;;;;;;;141.23;26.30;;;;;;;;;;4958974;28;20209;-70
2022/04/30 03:44:24;;;;;;;96.87;17.23;;;;;;;;;;4959931;28;20230;-70
2022/04/30 03:46:50;;;;;;;50.23;9.60;;;;;;;;;;4956585;28;20325;-70
2022/04/30 03:49:16;;;;;;;54.77;10.07;;;;;;;;;;4966641;28;20223;-70
2022/04/30 03:51:42;;;;;;;116.80;20.57;;;;;;;;;;4955760;28;20238;-70
2022/04/30 03:54:08;;;;;;;152.50;26.67;;;;;;;;;;4953589;28;20202;-70
2022/04/30 03:56:34;;;;;;;84.33;14.73;;;;;;;;;;4957046;28;20596;-70
2022/04/30 03:59:01;;;;;;;155.63;27.80;;;;;;;;;;4952867;28;20224;-70
2022/04/30 04:01:27;;;;;;;62.53;11.20;;;;;;;;;;4963284;28;20217;-70
2022/04/30 04:03:53;;;;;;;56.27;10.13;;;;;;;;;;4959233;28;20218;-70
2022/04/30 04:06:19;;;;;;;63.17;11.47;;;;;;;;;;4959679;28;20187;-70
2022/04/30 04:08:51;;;;;;;123.60;21.70;;;;;;;;;;4951519;28;20248;-70
2022/04/30 04:11:17;;;;;;;95.73;16.50;;;;;;;;;;4953287;28;20225;-70
2022/04/30 04:19:32;;;;;;;118.57;20.20;;;;;;;;;;4934977;28;20269;-70
2022/04/30 04:21:58;;;;;;;103.77;18.43;;;;;;;;;;4947507;28;20282;-70
2022/04/30 04:27:09;;;;;;;125.47;21.37;;;;;;;;;;4957159;28;20198;-70
2022/04/30 04:29:35;;;;;;;90.67;15.83;;;;;;;;;;4956254;28;20218;-70
2022/04/30 04:32:01;;;;;;;119.33;21.30;;;;;;;;;;4958642;28;20226;-70
2022/04/30 04:34:27;;;;;;;114.23;19.53;;;;;;;;;;4950738;28;20355;-70
2022/04/30 04:36:53;;;;;;;63.33;11.53;;;;;;;;;;4959394;28;20371;-70
2022/04/30 04:39:19;;;;;;;57.10;10.33;;;;;;;;;;4963591;28;20304;-70
2022/04/30 04:41:45;;;;;;;84.50;14.73;;;;;;;;;;4960571;28;20226;-70
2022/04/30 04:44:11;;;;;;;115.60;20.70;;;;;;;;;;4963602;28;20365;-70
2022/04/30 04:46:40;;;;;;;112.00;19.77;;;;;;;;;;4956844;28;20298;-70
2022/04/30 04:49:07;;;;;;;125.13;22.20;;;;;;;;;;4951470;28;20371;-70
2022/04/30 04:51:34;;;;;;;118.83;20.63;;;;;;;;;;4947494;28;20229;-70
2022/04/30 04:54:01;;;;;;;78.37;15.20;;;;;;;;;;4954243;28;20178;-70
2022/04/30 04:56:27;;;;;;;111.83;19.53;;;;;;;;;;4949335;28;20297;-70
2022/04/30 04:58:53;;;;;;;94.33;16.47;;;;;;;;;;4951061;28;20838;-70
2022/04/30 05:01:19;;;;;;;110.30;19.37;;;;;;;;;;4956455;28;20241;-70
2022/04/30 05:03:45;;;;;;;148.43;25.87;;;;;;;;;;4935982;28;20218;-70
2022/04/30 05:06:11;;;;;;;178.27;31.57;;;;;;;;;;4935902;28;20195;-70
2022/04/30 05:08:37;;;;;;;102.13;18.10;;;;;;;;;;4950171;28;20277;-71
2022/04/30 05:11:03;;;;;;;88.90;16.53;;;;;;;;;;4963724;28;20587;-66
2022/04/30 05:13:29;;;;;;;92.00;16.37;;;;;;;;;;4943925;28;20297;-66
2022/04/30 05:15:55;;;;;;;71.10;13.40;;;;;;;;;;4960993;28;20213;-67
2022/04/30 05:18:21;;;;;;;77.77;14.37;;;;;;;;;;4956928;28;20186;-67
2022/04/30 05:20:47;;;;;;;114.53;20.47;;;;;;;;;;4954209;28;20206;-65
2022/04/30 05:23:13;;;;;;;150.43;25.83;;;;;;;;;;4946016;28;20237;-65
2022/04/30 05:25:40;;;;;;;93.80;16.53;;;;;;;;;;4953304;28;20206;-65
2022/04/30 05:28:09;;;;;;;105.60;19.33;;;;;;;;;;4957972;28;20215;-66
2022/04/30 05:30:36;;;;;;;128.20;23.13;;;;;;;;;;4950596;28;20276;-66
2022/04/30 05:33:02;;;;;;;95.53;17.03;;;;;;;;;;4955291;28;20785;-66
2022/04/30 05:35:28;;;;;;;133.17;23.90;;;;;;;;;;4947790;28;20218;-66
2022/04/30 05:37:54;;;;;;;140.03;24.23;;;;;;;;;;4948593;28;20256;-66
2022/04/30 05:40:20;;;;;;;134.07;23.40;;;;;;;;;;4946818;28;20664;-66
2022/04/30 05:42:47;;;;;;;104.33;18.40;;;;;;;;;;4958762;28;20237;-66
2022/04/30 05:45:13;;;;;;;103.90;18.90;;;;;;;;;;4960216;28;21016;-66
2022/04/30 05:47:38;;;;;;;70.30;13.07;;;;;;;;;;4952066;28;20273;-66
2022/04/30 05:50:05;;;;;;;139.40;24.80;;;;;;;;;;4953655;28;20210;-66
2022/04/30 05:52:33;;;;;;;60.63;11.20;;;;;;;;;;4954745;28;20436;-66
2022/04/30 05:55:00;;;;;;;65.77;12.33;;;;;;;;;;4955035;28;20229;-66
2022/04/30 05:57:26;;;;;;;185.20;33.63;;;;;;;;;;4928031;28;20882;-66
2022/04/30 05:59:52;;;;;;;59.23;11.03;;;;;;;;;;4952872;28;20198;-66
2022/04/30 06:02:18;;;;;;;119.83;21.50;;;;;;;;;;4945120;28;20280;-67
2022/04/30 06:04:46;;;;;;;98.43;17.93;;;;;;;;;;4959076;28;20233;-67
2022/04/30 06:07:12;;;;;;;129.57;23.63;;;;;;;;;;4950391;28;20214;-67
2022/04/30 06:09:38;;;;;;;127.90;23.77;;;;;;;;;;4952892;28;20205;-66
2022/04/30 06:12:04;;;;;;;164.93;30.93;;;;;;;;;;4955075;28;21259;-67
2022/04/30 06:14:30;;;;;;;51.57;10.20;;;;;;;;;;4955014;28;20603;-67
2022/04/30 06:16:57;;;;;;;256.17;49.83;;;;;;;;;;4933853;28;20795;-66
2022/04/30 06:19:23;;;;;;;104.57;18.95;;;;;;;;;;4952028;28;20717;-66
2022/04/30 06:21:50;;;;;;;218.93;39.23;;;;;;;;;;4943066;28;20285;-67
2022/04/30 06:24:16;;;;;;;89.27;16.43;;;;;;;;;;4946670;28;20832;-67
2022/04/30 06:26:43;;;;;;;89.83;16.53;;;;;;;;;;4949760;28;20218;-66
2022/04/30 06:29:09;;;;;;;149.77;28.17;;;;;;;;;;4939012;28;20300;-67
2022/04/30 06:31:35;;;;;;;63.83;12.40;;;;;;;;;;4950757;28;20242;-68
2022/04/30 06:34:01;;;;;;;97.97;19.03;;;;;;;;;;4958060;28;20305;-68
2022/04/30 06:36:28;;;;;;;57.77;12.00;;;;;;;;;;4958739;28;20789;-67
2022/04/30 06:38:54;;;;;;;135.20;24.27;;;;;;;;;;4957770;28;20533;-68
2022/04/30 06:41:21;;;;;;;109.03;19.80;;;;;;;;;;4960850;28;20221;-68
2022/04/30 06:43:49;;;;;;;86.30;15.83;;;;;;;;;;4958519;28;20253;-68
2022/04/30 06:46:15;;;;;;;106.77;19.60;;;;;;;;;;4955419;28;20233;-67
2022/04/30 06:48:41;;;;;;;145.77;27.20;;;;;;;;;;4946500;28;20229;-67
2022/04/30 06:51:07;;;;;;;140.83;26.30;;;;;;;;;;4959656;28;20303;-65
2022/04/30 06:59:10;;;;;;;121.37;23.73;;;;;;;;;;4963385;28;20217;-66
2022/04/30 07:04:11;;;;;;;119.13;23.27;;;;;;;;;;4961480;28;20216;-65
2022/04/30 07:06:38;;;;;;;46.10;9.70;;;;;;;;;;4958137;28;20193;-66
2022/04/30 07:09:05;;;;;;;129.87;25.77;;;;;;;;;;4958586;28;20569;-66
2022/04/30 07:11:31;;;;;;;60.13;12.43;;;;;;;;;;4963263;28;20320;-66
2022/04/30 07:13:57;;;;;;;184.10;34.93;;;;;;;;;;4966034;28;20652;-67
2022/04/30 07:16:23;;;;;;;92.78;18.17;;;;;;;;;;4959556;28;20213;-67
2022/04/30 07:18:48;;;;;;;139.00;26.95;;;;;;;;;;4961071;28;20293;-67
2022/04/30 07:21:15;;;;;;;153.20;28.80;;;;;;;;;;4956496;28;20219;-66
2022/04/30 07:23:41;;;;;;;110.25;21.30;;;;;;;;;;4955811;28;20237;-67
2022/04/30 07:26:07;;;;;;;123.30;24.52;;;;;;;;;;4964936;28;20222;-69
2022/04/30 07:28:35;;;;;;;93.20;18.00;;;;;;;;;;4964018;28;20240;-67
2022/04/30 07:31:04;;;;;;;124.85;26.00;;;;;;;;;;4963342;28;20214;-68
2022/04/30 07:33:30;;;;;;;101.25;19.90;;;;;;;;;;4958121;28;20186;-67
2022/04/30 07:35:56;;;;;;;102.13;20.75;;;;;;;;;;4938239;28;20229;-67
2022/04/30 07:38:22;;;;;;;103.15;20.45;;;;;;;;;;4958532;28;20210;-66
2022/04/30 07:40:49;;;;;;;94.05;18.80;;;;;;;;;;4957773;28;20222;-74
2022/04/30 07:43:15;;;;;;;147.52;28.27;;;;;;;;;;4962446;28;22561;-67
2022/04/30 07:45:41;;;;;;;143.55;29.30;;;;;;;;;;4955446;28;20214;-66
2022/04/30 07:48:07;;;;;;;120.85;24.70;;;;;;;;;;4956968;28;21024;-66
2022/04/30 07:50:36;;;;;;;95.00;19.17;;;;;;;;;;4958441;28;20723;-62
2022/04/30 07:53:08;;;;;;;145.05;28.15;;;;;;;;;;4962791;28;20304;-62
2022/04/30 07:55:34;;;;;;;160.88;32.38;;;;;;;;;;4954190;28;20223;-62
2022/04/30 07:58:02;;;;;;;142.63;28.85;;;;;;;;;;4954241;28;20246;-66
2022/04/30 08:00:28;;;;;;;71.15;15.00;;;;;;;;;;4952869;28;20213;-65
2022/04/30 08:02:57;;;;;;;76.95;15.52;;;;;;;;;;4964904;28;20230;-66
2022/04/30 08:05:23;;;;;;;132.23;25.67;;;;;;;;;;4961136;28;20206;-66
2022/04/30 08:07:49;;;;;;;127.22;24.05;;;;;;;;;;4956931;28;20225;-66
2022/04/30 08:10:15;;;;;;;143.25;27.27;;;;;;;;;;4951181;28;20217;-68
2022/04/30 08:12:41;;;;;;;125.78;24.52;;;;;;;;;;4952210;28;20296;-65
2022/04/30 08:15:07;;;;;;;317.42;75.80;;;;;;;;;;4947161;28;20194;-66
2022/04/30 08:17:33;;;;;;;114.15;22.73;;;;;;;;;;4955572;28;20287;-66
2022/04/30 08:19:59;;;;;;;141.88;29.25;;;;;;;;;;4957301;28;20210;-66
2022/04/30 08:22:25;;;;;;;107.13;21.23;;;;;;;;;;4953664;28;20226;-65
2022/04/30 08:24:51;;;;;;;64.03;13.15;;;;;;;;;;4953394;28;20226;-66
2022/04/30 08:27:17;;;;;;;141.98;27.67;;;;;;;;;;4954256;28;20183;-66
2022/04/30 08:29:44;;;;;;;136.90;27.17;;;;;;;;;;4956196;28;20749;-66
2022/04/30 08:32:10;;;;;;;118.35;24.60;;;;;;;;;;4958755;28;20218;-66
2022/04/30 08:34:36;;;;;;;142.63;29.15;;;;;;;;;;4957262;28;20224;-66
2022/04/30 08:37:02;;;;;;;196.93;43.42;;;;;;;;;;4940580;28;20230;-66
2022/04/30 08:39:31;;;;;;;88.05;19.10;;;;;;;;;;4957487;28;20182;-66
2022/04/30 08:41:58;;;;;;;149.00;33.47;;;;;;;;;;4958353;28;20227;-67
2022/04/30 08:44:24;;;;;;;143.90;29.60;;;;;;;;;;4959635;28;20218;-66
2022/04/30 08:46:50;;;;;;;128.35;26.65;;;;;;;;;;4956813;28;20213;-67
2022/04/30 08:49:16;;;;;;;113.57;24.17;;;;;;;;;;4941641;28;20758;-65
2022/04/30 08:51:42;;;;;;;182.55;38.83;;;;;;;;;;4947485;28;20360;-65
2022/04/30 08:54:08;;;;;;;135.30;31.15;;;;;;;;;;4954810;28;20305;-65
2022/04/30 08:56:35;;;;;;;146.45;33.28;;;;;;;;;;4951184;28;20227;-65
2022/04/30 08:59:04;;;;;;;254.70;65.18;;;;;;;;;;4957839;28;20567;-64
2022/04/30 09:01:30;;;;;;;129.27;29.40;;;;;;;;;;4952963;28;20616;-64
2022/04/30 09:03:56;;;;;;;113.28;27.95;;;;;;;;;;4953659;28;20751;-65
2022/04/30 09:06:23;;;;;;;139.85;32.95;;;;;;;;;;4951742;28;20190;-65
2022/04/30 09:08:49;;;;;;;151.02;37.20;;;;;;;;;;4950315;28;20599;-65
2022/04/30 09:11:15;;;;;;;104.32;25.95;;;;;;;;;;4957871;28;20218;-65
2022/04/30 09:13:43;;;;;;;67.13;17.88;;;;;;;;;;4964035;28;20206;-65
2022/04/30 09:16:23;;;;;;;157.60;40.00;;;;;;;;;;4955301;28;20297;-65
2022/04/30 09:18:50;;;;;;;137.23;33.55;;;;;;;;;;4956637;28;20215;-65
2022/04/30 09:21:17;;;;;;;244.85;62.35;;;;;;;;;;4948628;28;20218;-64
2022/04/30 09:23:43;;;;;;;112.63;26.83;;;;;;;;;;4947699;28;20253;-65
2022/04/30 09:26:10;;;;;;;148.30;37.03;;;;;;;;;;4946004;28;20711;-65
2022/04/30 09:28:36;;;;;;;106.43;26.35;;;;;;;;;;4938081;28;20719;-65
2022/04/30 09:31:12;;;;;;;143.82;36.83;;;;;;;;;;4957641;28;20244;-65
2022/04/30 09:33:39;;;;;;;96.93;24.60;;;;;;;;;;4959099;28;20240;-65
2022/04/30 09:38:50;;;;;;;109.63;26.92;;;;;;;;;;4956723;28;20229;-65
2022/04/30 09:41:21;;;;;;;89.78;22.23;;;;;;;;;;4953665;28;20225;-66
2022/04/30 09:43:47;;;;;;;120.53;30.05;;;;;;;;;;4951176;28;20209;-65
2022/04/30 09:46:13;;;;;;;108.18;26.98;;;;;;;;;;4952999;28;20237;-66
2022/04/30 09:54:08;;;;;;;149.15;37.70;;;;;;;;;;4960002;28;20576;-65
2022/04/30 09:56:38;;;;;;;88.80;22.45;;;;;;;;;;4957277;28;20794;-65
2022/04/30 09:59:09;;;;;;;91.93;24.63;;;;;;;;;;4958248;28;20229;-65
2022/04/30 10:01:36;;;;;;;80.30;19.65;;;;;;;;;;4959960;28;20214;-65
2022/04/30 10:04:12;;;;;;;122.35;28.67;;;;;;;;;;4954069;28;20213;-65
2022/04/30 10:06:42;;;;;;;146.88;35.63;;;;;;;;;;4952151;28;20182;-65
2022/04/30 10:09:09;;;;;;;123.68;29.33;;;;;;;;;;4952795;28;20187;-65
2022/04/30 10:11:54;;;;;;;73.70;18.63;;;;;;;;;;4956788;28;20218;-65
2022/04/30 10:14:25;;;;;;;74.38;19.15;;;;;;;;;;4958597;28;20300;-65
2022/04/30 10:19:36;;;;;;;109.45;27.60;;;;;;;;;;4953816;28;20221;-65
2022/04/30 10:22:18;;;;;;;192.60;47.90;;;;;;;;;;4948808;28;20214;-68
2022/04/30 10:24:47;;;;;;;82.20;19.73;;;;;;;;;;4958282;28;20227;-66
2022/04/30 10:27:14;;;;;;;101.78;23.08;;;;;;;;;;4954553;28;20209;-67
2022/04/30 10:30:00;;;;;;;101.55;23.88;;;;;;;;;;4940408;28;20276;-66
2022/04/30 10:32:27;;;;;;;154.57;36.95;;;;;;;;;;4949596;28;20226;-67
2022/04/30 10:34:53;;;;;;;71.22;18.10;;;;;;;;;;4951492;28;20218;-65
2022/04/30 10:37:29;;;;;;;116.93;29.13;;;;;;;;;;4953763;28;20811;-66
2022/04/30 10:39:56;;;;;;;131.07;32.42;;;;;;;;;;4948560;28;20225;-65
2022/04/30 10:42:32;;;;;;;70.68;17.08;;;;;;;;;;4946538;28;20206;-66
2022/04/30 10:44:58;;;;;;;97.97;26.45;;;;;;;;;;4960014;28;20281;-65
2022/04/30 10:47:25;;;;;;;72.28;18.50;;;;;;;;;;4960689;28;20212;-66
2022/04/30 10:49:51;;;;;;;72.32;18.65;;;;;;;;;;4961702;28;20297;-66
2022/04/30 10:52:22;;;;;;;66.57;17.30;;;;;;;;;;4958262;28;20317;-65
2022/04/30 10:54:50;;;;;;;60.30;15.82;;;;;;;;;;4956624;28;20341;-66
2022/04/30 10:57:16;;;;;;;94.43;24.05;;;;;;;;;;4957317;28;20178;-66
2022/04/30 10:59:42;;;;;;;96.05;24.35;;;;;;;;;;4964106;28;20233;-65
2022/04/30 11:02:11;;;;;;;128.65;32.58;;;;;;;;;;4965403;28;20210;-65
2022/04/30 11:04:37;;;;;;;48.67;12.65;;;;;;;;;;4960690;28;20202;-65
2022/04/30 11:07:04;;;;;;;111.97;26.98;;;;;;;;;;4959784;28;20219;-66
2022/04/30 11:09:30;;;;;;;66.35;17.73;;;;;;;;;;4959755;28;20206;-65
2022/04/30 11:11:56;;;;;;;140.43;35.65;;;;;;;;;;4963970;28;20218;-65
2022/04/30 11:14:22;;;;;;;54.92;14.18;;;;;;;;;;4964611;28;20202;-66
2022/04/30 11:16:52;;;;;;;65.85;17.20;;;;;;;;;;4959674;28;20218;-66
2022/04/30 11:19:19;;;;;;;102.10;25.38;;;;;;;;;;4961059;28;20585;-66
2022/04/30 11:21:50;;;;;;;57.08;14.68;;;;;;;;;;4958730;28;20703;-65
2022/04/30 11:24:24;;;;;;;85.65;21.67;;;;;;;;;;4962792;28;20194;-66
2022/04/30 11:26:54;;;;;;;56.03;15.23;;;;;;;;;;4959380;28;20261;-66
2022/04/30 11:29:19;;;;;;;68.95;20.02;;;;;;;;;;4965381;28;20627;-65
2022/04/30 11:31:49;;;;;;;86.72;24.70;;;;;;;;;;4955337;28;20280;-66
2022/04/30 11:34:16;;;;;;;104.35;28.88;;;;;;;;;;4964503;28;20229;-66
2022/04/30 11:36:46;;;;;;;60.20;18.25;;;;;;;;;;4960686;28;20222;-65
2022/04/30 11:39:14;;;;;;;114.43;31.88;;;;;;;;;;4966851;28;20189;-66
2022/04/30 11:41:40;;;;;;;66.10;18.45;;;;;;;;;;4959232;28;20278;-65
2022/04/30 11:44:06;;;;;;;101.68;29.10;;;;;;;;;;4964247;28;20621;-65
2022/04/30 11:46:32;;;;;;;75.60;19.85;;;;;;;;;;4966163;28;20218;-65
2022/04/30 11:48:58;;;;;;;102.25;28.50;;;;;;;;;;4966428;28;20214;-66
2022/04/30 11:51:27;;;;;;;86.25;22.85;;;;;;;;;;4959947;28;20783;-66
2022/04/30 11:53:53;;;;;;;49.95;14.48;;;;;;;;;;4963115;28;20430;-64
2022/04/30 11:56:19;;;;;;;56.08;15.27;;;;;;;;;;4967681;28;20214;-66
2022/04/30 11:58:45;;;;;;;74.55;19.17;;;;;;;;;;4964863;28;20225;-65
2022/04/30 12:01:21;;;;;;;113.82;30.20;;;;;;;;;;4966015;28;20224;-65
2022/04/30 12:03:47;;;;;;;67.43;17.98;;;;;;;;;;4964726;28;20213;-65
2022/04/30 12:06:14;;;;;;;101.00;26.55;;;;;;;;;;4962105;28;20183;-66
2022/04/30 12:08:40;;;;;;;64.35;17.80;;;;;;;;;;4962875;28;20220;-66
2022/04/30 12:11:06;;;;;;;108.75;29.70;;;;;;;;;;4960317;28;20205;-65
2022/04/30 12:13:32;;;;;;;59.00;17.08;;;;;;;;;;4966709;28;20213;-66
2022/04/30 12:16:05;;;;;;;123.80;31.73;;;;;;;;;;4964747;28;20221;-65
2022/04/30 12:27:03;;;;;;;60.85;16.58;;;;;;;;;;4966599;28;20260;-65
2022/04/30 12:29:30;;;;;;;64.35;18.00;;;;;;;;;;4959201;28;20217;-66
2022/04/30 12:31:56;;;;;;;118.47;30.98;;;;;;;;;;4964808;28;20222;-66
2022/04/30 12:34:25;;;;;;;112.68;29.98;;;;;;;;;;4961122;28;20210;-65
2022/04/30 12:36:55;;;;;;;47.47;14.40;;;;;;;;;;4962694;28;20224;-65
2022/04/30 12:39:22;;;;;;;84.25;24.00;;;;;;;;;;4963742;28;20174;-65
2022/04/30 12:41:48;;;;;;;54.40;17.63;;;;;;;;;;4964700;28;20225;-66
2022/04/30 12:44:15;;;;;;;78.53;24.13;;;;;;;;;;4964520;28;20257;-65
2022/04/30 12:46:44;;;;;;;67.07;22.30;;;;;;;;;;4965372;28;20631;-65
2022/04/30 12:49:13;;;;;;;136.13;42.13;;;;;;;;;;4963097;28;20786;-65
2022/04/30 12:51:40;;;;;;;76.22;23.13;;;;;;;;;;4962564;28;20210;-65
2022/04/30 12:54:07;;;;;;;96.13;32.33;;;;;;;;;;4963713;28;20186;-65
2022/04/30 12:56:33;;;;;;;64.20;21.10;;;;;;;;;;4966867;28;20703;-66
2022/04/30 12:58:59;;;;;;;104.32;33.40;;;;;;;;;;4960835;28;20230;-66
2022/04/30 13:01:25;;;;;;;80.78;24.55;;;;;;;;;;4958963;28;20237;-66
2022/04/30 13:03:51;;;;;;;78.43;24.50;;;;;;;;;;4963264;28;20238;-65
2022/04/30 13:06:17;;;;;;;83.72;26.73;;;;;;;;;;4963264;28;20187;-66
2022/04/30 13:14:13;;;;;;;66.00;20.88;;;;;;;;;;4965412;28;20221;-65
2022/04/30 13:16:39;;;;;;;85.05;25.88;;;;;;;;;;4957406;28;20214;-65
2022/04/30 13:19:05;;;;;;;91.63;27.40;;;;;;;;;;4961744;28;20218;-65
2022/04/30 13:21:31;;;;;;;50.83;17.45;;;;;;;;;;4959212;28;20211;-65
2022/04/30 13:23:57;;;;;;;89.78;28.38;;;;;;;;;;4959276;28;20205;-65
2022/04/30 13:26:23;;;;;;;103.15;32.33;;;;;;;;;;4965808;28;20293;-66
2022/04/30 13:28:49;;;;;;;90.53;27.80;;;;;;;;;;4961566;28;20304;-66
2022/04/30 13:31:15;;;;;;;48.22;17.02;;;;;;;;;;4962641;28;20752;-67
2022/04/30 13:33:41;;;;;;;72.47;21.95;;;;;;;;;;4964460;28;20694;-65
2022/04/30 13:36:09;;;;;;;117.18;35.38;;;;;;;;;;4938021;28;20179;-65
2022/04/30 13:38:37;;;;;;;82.38;23.55;;;;;;;;;;4964655;28;20747;-65
2022/04/30 13:41:05;;;;;;;98.70;29.08;;;;;;;;;;4957558;28;20218;-66
2022/04/30 13:43:31;;;;;;;97.60;26.45;;;;;;;;;;4961388;28;20218;-65
2022/04/30 13:45:57;;;;;;;90.15;26.92;;;;;;;;;;4961854;28;20222;-65
2022/04/30 13:48:23;;;;;;;102.15;28.20;;;;;;;;;;4961709;28;20170;-65
2022/04/30 13:50:51;;;;;;;66.53;18.90;;;;;;;;;;4961166;28;20567;-65
2022/04/30 13:53:17;;;;;;;73.43;20.50;;;;;;;;;;4959632;28;20257;-65
2022/04/30 13:55:46;;;;;;;72.18;20.17;;;;;;;;;;4962133;28;20253;-65
2022/04/30 13:58:12;;;;;;;111.43;31.08;;;;;;;;;;4962440;28;20635;-65
2022/04/30 14:00:38;;;;;;;74.78;22.02;;;;;;;;;;4950085;28;20684;-65
2022/04/30 14:03:03;;;;;;;121.00;31.40;;;;;;;;;;4951386;28;20262;-68
2022/04/30 14:05:29;;;;;;;97.05;25.58;;;;;;;;;;4945998;28;20222;-67
2022/04/30 14:07:55;;;;;;;82.90;22.67;;;;;;;;;;4951701;28;20217;-66
2022/04/30 14:10:22;;;;;;;75.50;19.77;;;;;;;;;;4958578;28;20215;-67
2022/04/30 14:12:48;;;;;;;69.97;18.92;;;;;;;;;;4959218;28;20925;-66
2022/04/30 14:15:15;;;;;;;336.27;86.18;;;;;;;;;;4950681;28;20190;-65
2022/04/30 14:20:26;;;;;;;152.45;39.33;;;;;;;;;;4948635;28;20228;-64
2022/04/30 14:22:53;;;;;;;125.60;31.67;;;;;;;;;;4948185;28;20214;-64
2022/04/30 14:25:21;;;;;;;114.20;28.15;;;;;;;;;;4950827;28;20983;-65
2022/04/30 14:27:48;;;;;;;108.70;27.90;;;;;;;;;;4950395;28;20230;-64
2022/04/30 14:30:14;;;;;;;174.00;43.50;;;;;;;;;;4946336;28;20185;-64
2022/04/30 14:32:41;;;;;;;125.43;33.33;;;;;;;;;;4950494;28;20214;-64
2022/04/30 14:35:08;;;;;;;137.20;40.28;;;;;;;;;;4941896;28;20214;-64
2022/04/30 14:37:35;;;;;;;140.85;50.90;;;;;;;;;;4950935;28;20229;-65
2022/04/30 14:40:02;;;;;;;252.95;108.60;;;;;;;;;;4938513;28;20317;-62
2022/04/30 14:42:28;;;;;;;157.18;98.78;;;;;;;;;;4950366;28;20846;-63
2022/04/30 14:44:54;;;;;;;101.82;92.40;;;;;;;;;;4958178;28;20176;-62
2022/04/30 14:47:21;;;;;;;121.32;109.55;;;;;;;;;;4959996;28;20210;-62
2022/04/30 14:49:47;;;;;;;202.82;180.70;;;;;;;;;;4953295;28;20898;-61
2022/04/30 14:52:13;;;;;;;247.50;220.43;;;;;;;;;;4955942;28;20557;-63
2022/04/30 14:54:39;;;;;;;261.27;234.77;;;;;;;;;;4957792;28;20182;-63
2022/04/30 14:57:05;;;;;;;288.85;245.35;;;;;;;;;;4957673;28;20206;-63
2022/04/30 14:59:31;;;;;;;295.83;264.08;;;;;;;;;;4953125;28;20250;-62
2022/04/30 15:01:57;;;;;;;318.17;283.63;;;;;;;;;;4955378;28;20248;-63
2022/04/30 15:04:24;;;;;;;357.98;314.80;;;;;;;;;;4949589;28;23438;-63
2022/04/30 15:06:52;;;;;;;349.08;312.67;;;;;;;;;;4955278;28;20240;-64